sensor_id;sensor_type;location;lat;lon;timestamp;P1;durP1;ratioP1;P2;durP2;ratioP2
60169;SDS011;46042;49.444;6.862;2023-04-01T00:01:12;4.78;;;1.45;;
60169;SDS011;46042;49.444;6.862;2023-04-01T00:03:40;5.40;;;1.65;;
60169;SDS011;46042;49.444;6.862;2023-04-01T00:06:07;7.00;;;1.25;;
60169;SDS011;46042;49.444;6.862;2023-04-01T00:08:35;3.03;;;1.27;;
60169;SDS011;46042;49.444;6.862;2023-04-01T00:11:02;6.70;;;1.73;;
60169;SDS011;46042;49.444;6.862;2023-04-01T00:13:29;10.60;;;1.85;;
60169;SDS011;46042;49.444;6.862;2023-04-01T00:15:56;5.45;;;2.22;;
60169;SDS011;46042;49.444;6.862;2023-04-01T00:18:25;7.57;;;1.42;;
60169;SDS011;46042;49.444;6.862;2023-04-01T00:20:52;8.27;;;2.15;;
60169;SDS011;46042;49.444;6.862;2023-04-01T00:23:19;6.30;;;1.60;;
60169;SDS011;46042;49.444;6.862;2023-04-01T00:25:47;2.67;;;1.23;;
60169;SDS011;46042;49.444;6.862;2023-04-01T00:28:16;11.63;;;1.92;;
60169;SDS011;46042;49.444;6.862;2023-04-01T00:30:44;11.80;;;1.83;;
60169;SDS011;46042;49.444;6.862;2023-04-01T00:33:11;5.13;;;1.55;;
60169;SDS011;46042;49.444;6.862;2023-04-01T00:35:38;7.57;;;1.92;;
60169;SDS011;46042;49.444;6.862;2023-04-01T00:38:05;8.75;;;2.28;;
60169;SDS011;46042;49.444;6.862;2023-04-01T00:42:59;7.05;;;1.40;;
60169;SDS011;46042;49.444;6.862;2023-04-01T00:45:40;9.10;;;1.65;;
60169;SDS011;46042;49.444;6.862;2023-04-01T00:48:10;10.57;;;2.25;;
60169;SDS011;46042;49.444;6.862;2023-04-01T00:50:50;9.27;;;2.20;;
60169;SDS011;46042;49.444;6.862;2023-04-01T00:53:20;3.35;;;1.63;;
60169;SDS011;46042;49.444;6.862;2023-04-01T00:56:22;7.90;;;1.77;;
60169;SDS011;46042;49.444;6.862;2023-04-01T00:59:04;4.80;;;1.40;;
60169;SDS011;46042;49.444;6.862;2023-04-01T01:01:35;5.50;;;1.42;;
60169;SDS011;46042;49.444;6.862;2023-04-01T01:04:02;10.93;;;2.45;;
60169;SDS011;46042;49.444;6.862;2023-04-01T01:11:54;10.23;;;2.13;;
60169;SDS011;46042;49.444;6.862;2023-04-01T01:25:40;8.82;;;1.80;;
60169;SDS011;46042;49.444;6.862;2023-04-01T01:28:38;13.20;;;1.50;;
60169;SDS011;46042;49.444;6.862;2023-04-01T01:36:53;4.97;;;1.67;;
60169;SDS011;46042;49.444;6.862;2023-04-01T01:39:23;4.22;;;1.73;;
60169;SDS011;46042;49.444;6.862;2023-04-01T01:41:55;11.15;;;2.00;;
60169;SDS011;46042;49.444;6.862;2023-04-01T01:44:23;8.30;;;2.47;;
60169;SDS011;46042;49.444;6.862;2023-04-01T01:46:52;9.48;;;2.00;;
60169;SDS011;46042;49.444;6.862;2023-04-01T01:49:19;7.75;;;1.77;;
60169;SDS011;46042;49.444;6.862;2023-04-01T01:51:46;9.82;;;1.40;;
60169;SDS011;46042;49.444;6.862;2023-04-01T01:54:14;5.10;;;1.20;;
60169;SDS011;46042;49.444;6.862;2023-04-01T01:56:43;11.10;;;1.98;;
60169;SDS011;46042;49.444;6.862;2023-04-01T02:01:42;5.90;;;1.30;;
60169;SDS011;46042;49.444;6.862;2023-04-01T02:04:13;7.68;;;1.98;;
60169;SDS011;46042;49.444;6.862;2023-04-01T02:06:43;13.80;;;2.58;;
60169;SDS011;46042;49.444;6.862;2023-04-01T02:09:14;7.68;;;1.90;;
60169;SDS011;46042;49.444;6.862;2023-04-01T02:11:52;5.22;;;2.00;;
60169;SDS011;46042;49.444;6.862;2023-04-01T02:14:22;11.63;;;1.80;;
60169;SDS011;46042;49.444;6.862;2023-04-01T02:17:04;7.85;;;1.77;;
60169;SDS011;46042;49.444;6.862;2023-04-01T02:19:39;12.15;;;2.17;;
60169;SDS011;46042;49.444;6.862;2023-04-01T02:22:13;4.82;;;1.30;;
60169;SDS011;46042;49.444;6.862;2023-04-01T02:24:43;8.68;;;1.65;;
60169;SDS011;46042;49.444;6.862;2023-04-01T02:27:11;7.68;;;1.80;;
60169;SDS011;46042;49.444;6.862;2023-04-01T02:29:38;8.85;;;1.88;;
60169;SDS011;46042;49.444;6.862;2023-04-01T02:32:05;10.38;;;1.52;;
60169;SDS011;46042;49.444;6.862;2023-04-01T02:34:33;6.68;;;1.58;;
60169;SDS011;46042;49.444;6.862;2023-04-01T02:37:01;6.20;;;1.73;;
60169;SDS011;46042;49.444;6.862;2023-04-01T02:39:28;6.50;;;1.75;;
60169;SDS011;46042;49.444;6.862;2023-04-01T02:41:54;12.70;;;2.13;;
60169;SDS011;46042;49.444;6.862;2023-04-01T02:44:21;8.00;;;1.42;;
60169;SDS011;46042;49.444;6.862;2023-04-01T02:46:48;13.63;;;2.22;;
60169;SDS011;46042;49.444;6.862;2023-04-01T02:49:15;8.52;;;1.67;;
60169;SDS011;46042;49.444;6.862;2023-04-01T02:51:42;9.00;;;1.67;;
60169;SDS011;46042;49.444;6.862;2023-04-01T02:54:08;9.55;;;2.05;;
60169;SDS011;46042;49.444;6.862;2023-04-01T02:56:35;12.05;;;2.63;;
60169;SDS011;46042;49.444;6.862;2023-04-01T02:59:02;8.57;;;1.92;;
60169;SDS011;46042;49.444;6.862;2023-04-01T03:01:29;6.57;;;1.65;;
60169;SDS011;46042;49.444;6.862;2023-04-01T03:03:55;6.75;;;1.83;;
60169;SDS011;46042;49.444;6.862;2023-04-01T03:06:22;6.63;;;1.75;;
60169;SDS011;46042;49.444;6.862;2023-04-01T03:08:49;7.15;;;1.40;;
60169;SDS011;46042;49.444;6.862;2023-04-01T03:11:15;4.55;;;1.50;;
60169;SDS011;46042;49.444;6.862;2023-04-01T03:13:42;7.07;;;1.60;;
60169;SDS011;46042;49.444;6.862;2023-04-01T03:16:09;6.85;;;1.83;;
60169;SDS011;46042;49.444;6.862;2023-04-01T03:18:36;5.35;;;1.55;;
60169;SDS011;46042;49.444;6.862;2023-04-01T03:23:58;7.45;;;2.00;;
60169;SDS011;46042;49.444;6.862;2023-04-01T03:26:25;6.40;;;2.03;;
60169;SDS011;46042;49.444;6.862;2023-04-01T03:28:53;7.95;;;1.58;;
60169;SDS011;46042;49.444;6.862;2023-04-01T03:31:21;10.05;;;1.90;;
60169;SDS011;46042;49.444;6.862;2023-04-01T03:33:49;8.68;;;2.03;;
60169;SDS011;46042;49.444;6.862;2023-04-01T03:36:15;6.93;;;1.60;;
60169;SDS011;46042;49.444;6.862;2023-04-01T03:38:43;9.82;;;2.63;;
60169;SDS011;46042;49.444;6.862;2023-04-01T03:41:14;9.15;;;1.83;;
60169;SDS011;46042;49.444;6.862;2023-04-01T03:43:42;6.10;;;1.40;;
60169;SDS011;46042;49.444;6.862;2023-04-01T03:46:10;11.57;;;1.80;;
60169;SDS011;46042;49.444;6.862;2023-04-01T03:48:36;7.95;;;2.10;;
60169;SDS011;46042;49.444;6.862;2023-04-01T03:51:07;9.68;;;2.03;;
60169;SDS011;46042;49.444;6.862;2023-04-01T03:53:34;8.88;;;1.42;;
60169;SDS011;46042;49.444;6.862;2023-04-01T03:56:04;12.25;;;1.90;;
60169;SDS011;46042;49.444;6.862;2023-04-01T03:58:32;4.57;;;1.73;;
60169;SDS011;46042;49.444;6.862;2023-04-01T04:00:59;9.27;;;1.38;;
60169;SDS011;46042;49.444;6.862;2023-04-01T04:03:26;8.00;;;2.78;;
60169;SDS011;46042;49.444;6.862;2023-04-01T04:05:53;6.20;;;1.30;;
60169;SDS011;46042;49.444;6.862;2023-04-01T04:08:20;7.78;;;2.08;;
60169;SDS011;46042;49.444;6.862;2023-04-01T04:10:47;7.90;;;2.40;;
60169;SDS011;46042;49.444;6.862;2023-04-01T04:13:21;6.10;;;1.20;;
60169;SDS011;46042;49.444;6.862;2023-04-01T04:15:48;3.42;;;1.15;;
60169;SDS011;46042;49.444;6.862;2023-04-01T04:18:14;6.68;;;1.55;;
60169;SDS011;46042;49.444;6.862;2023-04-01T04:20:44;7.82;;;1.90;;
60169;SDS011;46042;49.444;6.862;2023-04-01T04:23:13;4.78;;;1.33;;
60169;SDS011;46042;49.444;6.862;2023-04-01T04:25:39;1.98;;;1.00;;
60169;SDS011;46042;49.444;6.862;2023-04-01T04:28:06;4.45;;;1.45;;
60169;SDS011;46042;49.444;6.862;2023-04-01T04:30:33;2.10;;;1.00;;
60169;SDS011;46042;49.444;6.862;2023-04-01T04:33:00;43.15;;;2.42;;
60169;SDS011;46042;49.444;6.862;2023-04-01T04:35:26;2.70;;;1.08;;
60169;SDS011;46042;49.444;6.862;2023-04-01T04:37:53;3.97;;;1.33;;
60169;SDS011;46042;49.444;6.862;2023-04-01T04:40:20;4.32;;;1.20;;
60169;SDS011;46042;49.444;6.862;2023-04-01T04:42:46;4.00;;;1.27;;
60169;SDS011;46042;49.444;6.862;2023-04-01T04:45:13;6.80;;;1.27;;
60169;SDS011;46042;49.444;6.862;2023-04-01T04:47:40;7.30;;;1.45;;
60169;SDS011;46042;49.444;6.862;2023-04-01T04:50:07;4.93;;;1.35;;
60169;SDS011;46042;49.444;6.862;2023-04-01T04:52:35;5.28;;;1.48;;
60169;SDS011;46042;49.444;6.862;2023-04-01T04:55:01;8.00;;;2.50;;
60169;SDS011;46042;49.444;6.862;2023-04-01T04:57:28;6.30;;;1.20;;
60169;SDS011;46042;49.444;6.862;2023-04-01T04:59:55;7.82;;;1.60;;
60169;SDS011;46042;49.444;6.862;2023-04-01T05:02:21;2.28;;;1.08;;
60169;SDS011;46042;49.444;6.862;2023-04-01T05:04:48;7.03;;;1.40;;
60169;SDS011;46042;49.444;6.862;2023-04-01T05:07:15;4.93;;;1.90;;
60169;SDS011;46042;49.444;6.862;2023-04-01T05:09:42;5.20;;;1.65;;
60169;SDS011;46042;49.444;6.862;2023-04-01T05:12:08;4.60;;;1.45;;
60169;SDS011;46042;49.444;6.862;2023-04-01T05:14:35;3.05;;;1.10;;
60169;SDS011;46042;49.444;6.862;2023-04-01T05:17:01;4.30;;;1.92;;
60169;SDS011;46042;49.444;6.862;2023-04-01T05:19:28;4.57;;;1.88;;
60169;SDS011;46042;49.444;6.862;2023-04-01T05:21:55;4.00;;;2.38;;
60169;SDS011;46042;49.444;6.862;2023-04-01T05:24:22;1.95;;;1.17;;
60169;SDS011;46042;49.444;6.862;2023-04-01T05:26:48;10.18;;;1.60;;
60169;SDS011;46042;49.444;6.862;2023-04-01T05:29:15;3.17;;;1.52;;
60169;SDS011;46042;49.444;6.862;2023-04-01T05:31:42;3.63;;;1.23;;
60169;SDS011;46042;49.444;6.862;2023-04-01T05:34:08;4.50;;;1.50;;
60169;SDS011;46042;49.444;6.862;2023-04-01T05:36:35;4.70;;;0.95;;
60169;SDS011;46042;49.444;6.862;2023-04-01T05:39:02;2.67;;;0.90;;
60169;SDS011;46042;49.444;6.862;2023-04-01T05:41:29;2.67;;;1.00;;
60169;SDS011;46042;49.444;6.862;2023-04-01T05:43:56;4.65;;;1.50;;
60169;SDS011;46042;49.444;6.862;2023-04-01T05:46:22;7.95;;;1.30;;
60169;SDS011;46042;49.444;6.862;2023-04-01T05:48:49;5.05;;;1.40;;
60169;SDS011;46042;49.444;6.862;2023-04-01T05:51:16;8.35;;;1.30;;
60169;SDS011;46042;49.444;6.862;2023-04-01T05:53:42;4.93;;;1.30;;
60169;SDS011;46042;49.444;6.862;2023-04-01T05:56:09;5.10;;;1.50;;
60169;SDS011;46042;49.444;6.862;2023-04-01T05:58:36;2.63;;;1.38;;
60169;SDS011;46042;49.444;6.862;2023-04-01T06:01:04;5.75;;;1.70;;
60169;SDS011;46042;49.444;6.862;2023-04-01T06:03:41;4.25;;;1.30;;
60169;SDS011;46042;49.444;6.862;2023-04-01T06:06:13;1.45;;;1.20;;
60169;SDS011;46042;49.444;6.862;2023-04-01T06:08:42;3.28;;;1.33;;
60169;SDS011;46042;49.444;6.862;2023-04-01T06:14:07;6.32;;;1.10;;
60169;SDS011;46042;49.444;6.862;2023-04-01T06:27:40;4.22;;;1.30;;
60169;SDS011;46042;49.444;6.862;2023-04-01T06:32:59;4.88;;;1.40;;
60169;SDS011;46042;49.444;6.862;2023-04-01T06:43:21;4.03;;;1.00;;
60169;SDS011;46042;49.444;6.862;2023-04-01T06:51:54;0.85;;;0.77;;
60169;SDS011;46042;49.444;6.862;2023-04-01T06:54:47;1.45;;;1.05;;
60169;SDS011;46042;49.444;6.862;2023-04-01T06:59:47;1.85;;;1.05;;
60169;SDS011;46042;49.444;6.862;2023-04-01T07:05:03;2.28;;;1.23;;
60169;SDS011;46042;49.444;6.862;2023-04-01T07:07:44;1.33;;;1.00;;
60169;SDS011;46042;49.444;6.862;2023-04-01T07:10:27;1.85;;;0.90;;
60169;SDS011;46042;49.444;6.862;2023-04-01T07:13:09;2.15;;;1.00;;
60169;SDS011;46042;49.444;6.862;2023-04-01T07:15:49;1.10;;;0.90;;
60169;SDS011;46042;49.444;6.862;2023-04-01T07:18:32;0.95;;;0.90;;
60169;SDS011;46042;49.444;6.862;2023-04-01T07:21:09;1.23;;;0.80;;
60169;SDS011;46042;49.444;6.862;2023-04-01T07:23:44;1.98;;;1.10;;
60169;SDS011;46042;49.444;6.862;2023-04-01T07:26:23;2.13;;;1.38;;
60169;SDS011;46042;49.444;6.862;2023-04-01T07:28:51;0.70;;;0.70;;
60169;SDS011;46042;49.444;6.862;2023-04-01T07:36:45;1.15;;;0.90;;
60169;SDS011;46042;49.444;6.862;2023-04-01T07:39:56;5.47;;;1.17;;
60169;SDS011;46042;49.444;6.862;2023-04-01T07:42:23;1.00;;;0.90;;
60169;SDS011;46042;49.444;6.862;2023-04-01T07:45:08;1.25;;;0.85;;
60169;SDS011;46042;49.444;6.862;2023-04-01T07:50:46;1.88;;;1.30;;
60169;SDS011;46042;49.444;6.862;2023-04-01T07:56:10;1.25;;;1.20;;
60169;SDS011;46042;49.444;6.862;2023-04-01T07:58:45;1.23;;;1.00;;
60169;SDS011;46042;49.444;6.862;2023-04-01T08:01:27;4.20;;;1.33;;
60169;SDS011;46042;49.444;6.862;2023-04-01T08:04:09;3.58;;;1.63;;
60169;SDS011;46042;49.444;6.862;2023-04-01T08:09:40;4.10;;;1.23;;
60169;SDS011;46042;49.444;6.862;2023-04-01T08:15:23;1.15;;;1.05;;
60169;SDS011;46042;49.444;6.862;2023-04-01T08:17:58;2.05;;;1.13;;
60169;SDS011;46042;49.444;6.862;2023-04-01T08:20:57;3.15;;;1.25;;
60169;SDS011;46042;49.444;6.862;2023-04-01T08:28:54;0.80;;;0.80;;
60169;SDS011;46042;49.444;6.862;2023-04-01T08:34:05;1.08;;;0.90;;
60169;SDS011;46042;49.444;6.862;2023-04-01T08:36:42;1.48;;;1.10;;
60169;SDS011;46042;49.444;6.862;2023-04-01T08:39:15;1.30;;;1.20;;
60169;SDS011;46042;49.444;6.862;2023-04-01T08:53:12;3.50;;;1.30;;
60169;SDS011;46042;49.444;6.862;2023-04-01T08:58:51;1.80;;;0.90;;
60169;SDS011;46042;49.444;6.862;2023-04-01T09:06:45;1.15;;;0.95;;
60169;SDS011;46042;49.444;6.862;2023-04-01T09:09:25;1.00;;;1.00;;
60169;SDS011;46042;49.444;6.862;2023-04-01T09:22:37;3.25;;;1.20;;
60169;SDS011;46042;49.444;6.862;2023-04-01T09:36:33;1.25;;;0.90;;
60169;SDS011;46042;49.444;6.862;2023-04-01T09:39:24;0.60;;;0.60;;
60169;SDS011;46042;49.444;6.862;2023-04-01T09:44:48;1.42;;;0.98;;
60169;SDS011;46042;49.444;6.862;2023-04-01T09:47:43;1.13;;;0.90;;
60169;SDS011;46042;49.444;6.862;2023-04-01T09:50:14;1.02;;;0.80;;
60169;SDS011;46042;49.444;6.862;2023-04-01T10:01:19;2.20;;;1.00;;
60169;SDS011;46042;49.444;6.862;2023-04-01T10:12:57;2.60;;;1.90;;
60169;SDS011;46042;49.444;6.862;2023-04-01T10:15:52;2.00;;;1.40;;
60169;SDS011;46042;49.444;6.862;2023-04-01T10:18:40;3.50;;;1.85;;
60169;SDS011;46042;49.444;6.862;2023-04-01T10:24:23;1.25;;;0.95;;
60169;SDS011;46042;49.444;6.862;2023-04-01T10:35:49;1.90;;;1.30;;
60169;SDS011;46042;49.444;6.862;2023-04-01T11:03:09;1.45;;;1.20;;
60169;SDS011;46042;49.444;6.862;2023-04-01T11:08:54;3.63;;;1.67;;
60169;SDS011;46042;49.444;6.862;2023-04-01T11:25:18;4.70;;;1.65;;
60169;SDS011;46042;49.444;6.862;2023-04-01T11:30:41;3.03;;;1.70;;
60169;SDS011;46042;49.444;6.862;2023-04-01T11:55:11;5.05;;;2.13;;
60169;SDS011;46042;49.444;6.862;2023-04-01T11:57:56;4.53;;;1.95;;
60169;SDS011;46042;49.444;6.862;2023-04-01T12:00:41;9.68;;;4.90;;
60169;SDS011;46042;49.444;6.862;2023-04-01T12:06:25;2.17;;;1.50;;
60169;SDS011;46042;49.444;6.862;2023-04-01T12:15:21;4.07;;;2.10;;
60169;SDS011;46042;49.444;6.862;2023-04-01T12:23:19;3.80;;;2.22;;
60169;SDS011;46042;49.444;6.862;2023-04-01T12:31:42;3.78;;;1.95;;
60169;SDS011;46042;49.444;6.862;2023-04-01T12:34:24;9.70;;;3.60;;
60169;SDS011;46042;49.444;6.862;2023-04-01T12:39:59;1.85;;;1.55;;
60169;SDS011;46042;49.444;6.862;2023-04-01T12:42:44;1.63;;;1.27;;
60169;SDS011;46042;49.444;6.862;2023-04-01T12:45:33;1.73;;;1.40;;
60169;SDS011;46042;49.444;6.862;2023-04-01T12:56:14;3.42;;;2.03;;
60169;SDS011;46042;49.444;6.862;2023-04-01T13:07:29;5.20;;;2.03;;
60169;SDS011;46042;49.444;6.862;2023-04-01T13:15:25;4.57;;;2.08;;
60169;SDS011;46042;49.444;6.862;2023-04-01T13:26:28;4.80;;;2.33;;
60169;SDS011;46042;49.444;6.862;2023-04-01T13:29:15;7.95;;;3.15;;
60169;SDS011;46042;49.444;6.862;2023-04-01T13:31:50;3.60;;;1.85;;
60169;SDS011;46042;49.444;6.862;2023-04-01T13:42:10;5.45;;;2.35;;
60169;SDS011;46042;49.444;6.862;2023-04-01T14:01:49;2.25;;;1.17;;
60169;SDS011;46042;49.444;6.862;2023-04-01T14:13:20;4.13;;;1.75;;
60169;SDS011;46042;49.444;6.862;2023-04-01T14:18:45;3.97;;;1.60;;
60169;SDS011;46042;49.444;6.862;2023-04-01T14:37:47;1.98;;;1.35;;
60169;SDS011;46042;49.444;6.862;2023-04-01T14:46:13;1.70;;;1.27;;
60169;SDS011;46042;49.444;6.862;2023-04-01T14:49:05;4.03;;;1.20;;
60169;SDS011;46042;49.444;6.862;2023-04-01T14:51:43;0.85;;;0.82;;
60169;SDS011;46042;49.444;6.862;2023-04-01T14:54:20;4.93;;;1.73;;
60169;SDS011;46042;49.444;6.862;2023-04-01T15:21:38;2.33;;;1.42;;
60169;SDS011;46042;49.444;6.862;2023-04-01T15:27:13;2.63;;;1.30;;
60169;SDS011;46042;49.444;6.862;2023-04-01T15:29:59;3.00;;;1.20;;
60169;SDS011;46042;49.444;6.862;2023-04-01T15:32:43;7.13;;;1.20;;
60169;SDS011;46042;49.444;6.862;2023-04-01T15:37:54;4.88;;;1.55;;
60169;SDS011;46042;49.444;6.862;2023-04-01T15:40:36;2.72;;;1.25;;
60169;SDS011;46042;49.444;6.862;2023-04-01T15:46:05;2.65;;;1.50;;
60169;SDS011;46042;49.444;6.862;2023-04-01T15:48:49;1.80;;;1.30;;
60169;SDS011;46042;49.444;6.862;2023-04-01T15:57:02;5.47;;;1.88;;
60169;SDS011;46042;49.444;6.862;2023-04-01T15:59:54;2.25;;;1.65;;
60169;SDS011;46042;49.444;6.862;2023-04-01T16:28:42;3.25;;;1.40;;
60169;SDS011;46042;49.444;6.862;2023-04-01T16:36:01;9.20;;;1.85;;
60169;SDS011;46042;49.444;6.862;2023-04-01T16:44:17;4.10;;;2.53;;
60169;SDS011;46042;49.444;6.862;2023-04-01T16:46:56;2.53;;;1.70;;
60169;SDS011;46042;49.444;6.862;2023-04-01T16:59:57;1.73;;;1.10;;
60169;SDS011;46042;49.444;6.862;2023-04-01T17:02:35;3.38;;;1.30;;
60169;SDS011;46042;49.444;6.862;2023-04-01T17:05:05;1.95;;;1.20;;
60169;SDS011;46042;49.444;6.862;2023-04-01T17:13:28;2.58;;;1.00;;
60169;SDS011;46042;49.444;6.862;2023-04-01T17:21:45;2.40;;;1.40;;
60169;SDS011;46042;49.444;6.862;2023-04-01T17:30:50;2.78;;;1.45;;
60169;SDS011;46042;49.444;6.862;2023-04-01T17:40:53;9.50;;;2.90;;
60169;SDS011;46042;49.444;6.862;2023-04-01T17:43:47;10.23;;;3.72;;
60169;SDS011;46042;49.444;6.862;2023-04-01T18:06:03;6.45;;;3.30;;
60169;SDS011;46042;49.444;6.862;2023-04-01T18:22:09;4.75;;;2.25;;
60169;SDS011;46042;49.444;6.862;2023-04-01T18:24:40;4.05;;;2.20;;
60169;SDS011;46042;49.444;6.862;2023-04-01T18:27:18;2.15;;;1.50;;
60169;SDS011;46042;49.444;6.862;2023-04-01T18:37:24;8.20;;;3.10;;
60169;SDS011;46042;49.444;6.862;2023-04-01T18:40:00;5.55;;;2.83;;
60169;SDS011;46042;49.444;6.862;2023-04-01T18:43:22;4.93;;;2.50;;
60169;SDS011;46042;49.444;6.862;2023-04-01T18:45:57;2.78;;;2.05;;
60169;SDS011;46042;49.444;6.862;2023-04-01T18:48:34;10.18;;;3.67;;
60169;SDS011;46042;49.444;6.862;2023-04-01T18:54:02;5.00;;;2.60;;
60169;SDS011;46042;49.444;6.862;2023-04-01T18:56:40;7.78;;;2.83;;
60169;SDS011;46042;49.444;6.862;2023-04-01T19:04:17;3.35;;;2.00;;
60169;SDS011;46042;49.444;6.862;2023-04-01T19:06:59;4.18;;;2.28;;
60169;SDS011;46042;49.444;6.862;2023-04-01T19:09:47;5.75;;;2.40;;
60169;SDS011;46042;49.444;6.862;2023-04-01T19:23:38;3.45;;;1.95;;
60169;SDS011;46042;49.444;6.862;2023-04-01T19:26:28;2.55;;;1.70;;
60169;SDS011;46042;49.444;6.862;2023-04-01T19:34:07;2.35;;;1.80;;
60169;SDS011;46042;49.444;6.862;2023-04-01T19:36:53;2.28;;;1.63;;
60169;SDS011;46042;49.444;6.862;2023-04-01T19:40:02;7.20;;;1.52;;
60169;SDS011;46042;49.444;6.862;2023-04-01T19:48:17;2.38;;;1.70;;
60169;SDS011;46042;49.444;6.862;2023-04-01T19:56:48;3.58;;;1.52;;
60169;SDS011;46042;49.444;6.862;2023-04-01T19:59:52;1.60;;;1.50;;
60169;SDS011;46042;49.444;6.862;2023-04-01T20:19:45;6.75;;;1.95;;
60169;SDS011;46042;49.444;6.862;2023-04-01T20:22:28;4.20;;;1.98;;
60169;SDS011;46042;49.444;6.862;2023-04-01T20:25:14;5.47;;;2.08;;
60169;SDS011;46042;49.444;6.862;2023-04-01T20:27:47;3.90;;;1.70;;
60169;SDS011;46042;49.444;6.862;2023-04-01T20:35:49;2.65;;;1.80;;
60169;SDS011;46042;49.444;6.862;2023-04-01T20:43:57;6.55;;;2.13;;
60169;SDS011;46042;49.444;6.862;2023-04-01T20:46:37;2.90;;;1.90;;
60169;SDS011;46042;49.444;6.862;2023-04-01T20:51:43;4.45;;;2.38;;
60169;SDS011;46042;49.444;6.862;2023-04-01T20:54:47;10.20;;;2.80;;
60169;SDS011;46042;49.444;6.862;2023-04-01T21:01:04;7.18;;;2.72;;
60169;SDS011;46042;49.444;6.862;2023-04-01T21:03:40;9.50;;;3.35;;
60169;SDS011;46042;49.444;6.862;2023-04-01T21:06:38;4.10;;;2.10;;
60169;SDS011;46042;49.444;6.862;2023-04-01T21:09:26;4.35;;;2.20;;
60169;SDS011;46042;49.444;6.862;2023-04-01T21:17:38;5.57;;;2.50;;
60169;SDS011;46042;49.444;6.862;2023-04-01T21:38:48;2.38;;;1.80;;
60169;SDS011;46042;49.444;6.862;2023-04-01T21:43:35;5.15;;;2.10;;
60169;SDS011;46042;49.444;6.862;2023-04-01T21:48:52;3.35;;;1.45;;
60169;SDS011;46042;49.444;6.862;2023-04-01T21:54:31;2.88;;;1.77;;
60169;SDS011;46042;49.444;6.862;2023-04-01T22:06:00;3.95;;;1.70;;
60169;SDS011;46042;49.444;6.862;2023-04-01T22:16:58;2.67;;;1.83;;
60169;SDS011;46042;49.444;6.862;2023-04-01T22:19:42;4.07;;;2.05;;
60169;SDS011;46042;49.444;6.862;2023-04-01T22:25:25;6.95;;;1.98;;
60169;SDS011;46042;49.444;6.862;2023-04-01T22:27:55;3.20;;;1.90;;
60169;SDS011;46042;49.444;6.862;2023-04-01T22:30:29;6.43;;;2.80;;
60169;SDS011;46042;49.444;6.862;2023-04-01T22:33:05;4.05;;;2.70;;
60169;SDS011;46042;49.444;6.862;2023-04-01T22:35:37;9.40;;;2.90;;
60169;SDS011;46042;49.444;6.862;2023-04-01T22:40:57;7.55;;;3.05;;
60169;SDS011;46042;49.444;6.862;2023-04-01T22:43:37;6.18;;;3.30;;
60169;SDS011;46042;49.444;6.862;2023-04-01T22:49:03;5.63;;;3.00;;
60169;SDS011;46042;49.444;6.862;2023-04-01T22:51:43;5.07;;;2.78;;
60169;SDS011;46042;49.444;6.862;2023-04-01T23:05:37;6.22;;;2.75;;
60169;SDS011;46042;49.444;6.862;2023-04-01T23:11:16;4.18;;;2.58;;
60169;SDS011;46042;49.444;6.862;2023-04-01T23:13:53;5.72;;;3.30;;
60169;SDS011;46042;49.444;6.862;2023-04-01T23:16:29;4.03;;;2.50;;
60169;SDS011;46042;49.444;6.862;2023-04-01T23:21:39;7.38;;;3.28;;
60169;SDS011;46042;49.444;6.862;2023-04-01T23:27:04;7.00;;;3.88;;
60169;SDS011;46042;49.444;6.862;2023-04-01T23:29:38;6.88;;;3.30;;
60169;SDS011;46042;49.444;6.862;2023-04-01T23:32:15;14.88;;;3.40;;
60169;SDS011;46042;49.444;6.862;2023-04-01T23:34:49;8.00;;;3.20;;
60169;SDS011;46042;49.444;6.862;2023-04-01T23:37:18;6.90;;;3.33;;
60169;SDS011;46042;49.444;6.862;2023-04-01T23:39:47;5.65;;;3.20;;
60169;SDS011;46042;49.444;6.862;2023-04-01T23:44:50;7.40;;;3.17;;
60169;SDS011;46042;49.444;6.862;2023-04-01T23:47:26;8.52;;;3.28;;
60169;SDS011;46042;49.444;6.862;2023-04-01T23:50:16;5.43;;;2.95;;
60169;SDS011;46042;49.444;6.862;2023-04-01T23:52:49;8.13;;;3.65;;
60169;SDS011;46042;49.444;6.862;2023-04-01T23:55:23;7.68;;;2.92;;
60169;SDS011;46042;49.444;6.862;2023-04-01T23:58:00;4.47;;;2.75;;
